DUF weather

Pine Island Airport
Corolla, North Carolina, United States

Public forecast

Using degrees Fahrenheit for public forecast. Weather courtesy of forecast.io.

METAR (pilot weather report)

Report is more than 6 hours old.

Closest report is Kitty Hawk One Heliport, 11.8 nm (21.9 km) SSE. Retrieved 2016/07/20 14:40 UTC (3 years ago):

NR01 201440Z 35015KT 4500 HZ NSC 37/18 Q1012 M2 NOSIG

TAF (pilot weather forecast)

Closest forecast is Elizabeth City Regional Airport & Coast Guard Air Station, 18.7 nm (34.6 km) W. Retrieved 2019/02/17 18:54 UTC (3 hours ago):

TAF TAF KECG 171748Z 1718/1818 08009KT P6SM OVC060 FM180000 14009KT P6SM VCSH OVC030 FM180300 20008KT 5SM -RA BR OVC015 FM180600 22011KT 4SM RA BR OVC009 FM181200 26007KT 6SM -SHRA BR OVC015